Time;durP1;ratioP1;P1;durP2;ratioP2;P2;SDS_P1;SDS_P2;PMS_P1;PMS_P2;Temp;Humidity;BMP_temperature;BMP_pressure;BME280_temperature;BME280_humidity;BME280_pressure;Samples;Min_cycle;Max_cycle;Signal;HPM_P1;HPM_P2
2023/04/01 00:01:19;;;;;;;12.60;9.27;;;;;;;;;;5071357;28;20484;-81
2023/04/01 00:03:45;;;;;;;13.00;9.30;;;;;;;;;;5053785;28;20436;-86
2023/04/01 00:06:13;;;;;;;12.73;9.35;;;;;;;;;;5030159;28;20402;-86
2023/04/01 00:08:39;;;;;;;13.50;9.10;;;;;;;;;;5062084;28;20417;-86
2023/04/01 00:11:05;;;;;;;12.60;9.43;;;;;;;;;;5114732;28;20453;-85
2023/04/01 00:13:32;;;;;;;13.90;9.57;;;;;;;;;;5077224;28;20428;-86
2023/04/01 00:15:58;;;;;;;14.77;9.90;;;;;;;;;;5041581;28;20422;-86
2023/04/01 00:18:24;;;;;;;13.38;9.15;;;;;;;;;;5067690;28;20423;-86
2023/04/01 00:20:52;;;;;;;13.15;9.55;;;;;;;;;;5095727;28;20411;-86
2023/04/01 00:23:19;;;;;;;12.60;9.45;;;;;;;;;;5068011;28;20559;-86
2023/04/01 00:25:47;;;;;;;12.80;9.20;;;;;;;;;;5077044;28;20509;-86
2023/04/01 00:28:14;;;;;;;12.60;9.32;;;;;;;;;;5099910;28;20410;-86
2023/04/01 00:30:40;;;;;;;12.40;9.43;;;;;;;;;;5055548;28;20419;-86
2023/04/01 00:33:06;;;;;;;14.80;9.10;;;;;;;;;;5056391;28;20399;-87
2023/04/01 00:35:33;;;;;;;12.93;9.32;;;;;;;;;;5060611;28;20394;-87
2023/04/01 00:37:59;;;;;;;13.63;8.82;;;;;;;;;;5075924;28;20449;-87
2023/04/01 00:40:25;;;;;;;13.47;9.40;;;;;;;;;;5075542;28;20422;-87
2023/04/01 00:42:51;;;;;;;13.95;9.25;;;;;;;;;;5092668;28;20413;-88
2023/04/01 00:45:23;;;;;;;14.82;9.40;;;;;;;;;;5091562;28;20416;-88
2023/04/01 00:47:49;;;;;;;12.60;9.20;;;;;;;;;;5074727;28;20421;-87
2023/04/01 00:50:15;;;;;;;12.07;8.82;;;;;;;;;;5076461;28;20546;-88
2023/04/01 00:52:42;;;;;;;13.98;9.93;;;;;;;;;;5092339;28;20425;-87
2023/04/01 00:55:11;;;;;;;15.13;9.90;;;;;;;;;;5093633;28;20428;-89
2023/04/01 00:57:38;;;;;;;13.85;9.20;;;;;;;;;;5092999;28;20417;-88
2023/04/01 01:00:09;;;;;;;14.25;9.55;;;;;;;;;;5058672;28;20920;-88
2023/04/01 01:02:36;;;;;;;13.95;10.10;;;;;;;;;;5073925;28;20492;-88
2023/04/01 01:05:02;;;;;;;14.30;9.50;;;;;;;;;;5089716;28;21534;-89
2023/04/01 01:07:28;;;;;;;13.60;9.63;;;;;;;;;;5108390;28;20422;-87
2023/04/01 01:09:54;;;;;;;13.23;9.80;;;;;;;;;;5092666;28;20905;-87
2023/04/01 01:12:25;;;;;;;12.77;9.32;;;;;;;;;;5091683;28;20405;-87
2023/04/01 01:15:14;;;;;;;14.27;9.95;;;;;;;;;;5091943;28;20402;-87
2023/04/01 01:17:55;;;;;;;13.75;9.43;;;;;;;;;;5073132;28;21010;-87
2023/04/01 01:20:30;;;;;;;16.52;10.32;;;;;;;;;;5090436;28;20417;-88
2023/04/01 01:22:59;;;;;;;14.98;9.98;;;;;;;;;;5112658;28;20404;-88
2023/04/01 01:25:42;;;;;;;14.80;10.20;;;;;;;;;;5046654;28;20435;-88
2023/04/01 01:28:28;;;;;;;13.48;9.88;;;;;;;;;;5094867;28;20553;-87
2023/04/01 01:30:54;;;;;;;15.20;10.05;;;;;;;;;;5062254;28;20398;-88
2023/04/01 01:33:30;;;;;;;15.90;10.13;;;;;;;;;;5078957;28;20413;-87
2023/04/01 01:35:57;;;;;;;16.17;10.18;;;;;;;;;;5095650;28;21099;-87
2023/04/01 01:38:25;;;;;;;16.95;10.75;;;;;;;;;;5061816;28;20497;-86
2023/04/01 01:40:53;;;;;;;10.45;7.28;;;;;;;;;;5095503;28;20413;-87
2023/04/01 01:43:22;;;;;;;11.43;7.45;;;;;;;;;;5061605;28;20430;-86
2023/04/01 01:45:51;;;;;;;10.40;6.18;;;;;;;;;;5063409;28;20394;-86
2023/04/01 01:48:17;;;;;;;8.60;5.70;;;;;;;;;;5077614;28;20963;-86
2023/04/01 01:50:45;;;;;;;7.10;4.78;;;;;;;;;;5078057;28;20496;-85
2023/04/01 01:53:12;;;;;;;7.47;5.55;;;;;;;;;;5078207;28;22473;-86
2023/04/01 01:55:42;;;;;;;9.45;5.82;;;;;;;;;;5081699;28;20411;-85
2023/04/01 01:58:20;;;;;;;10.55;6.88;;;;;;;;;;5093549;28;20422;-86
2023/04/01 02:01:07;;;;;;;12.52;7.93;;;;;;;;;;5094210;28;20474;-86
2023/04/01 02:03:35;;;;;;;10.70;7.43;;;;;;;;;;5092967;28;20921;-80
2023/04/01 02:06:02;;;;;;;10.52;7.45;;;;;;;;;;5059636;28;20421;-81
2023/04/01 02:08:35;;;;;;;13.32;8.60;;;;;;;;;;5092457;28;20420;-80
2023/04/01 02:11:06;;;;;;;12.00;7.83;;;;;;;;;;5060336;28;20401;-81
2023/04/01 02:13:38;;;;;;;14.48;8.73;;;;;;;;;;5071829;28;20424;-81
2023/04/01 02:16:07;;;;;;;14.10;9.52;;;;;;;;;;5071112;28;20445;-80
2023/04/01 02:18:35;;;;;;;16.27;10.63;;;;;;;;;;5059263;28;20909;-80
2023/04/01 02:21:02;;;;;;;15.95;10.55;;;;;;;;;;5076025;28;20421;-80
2023/04/01 02:23:29;;;;;;;16.08;9.98;;;;;;;;;;5038966;28;20519;-80
2023/04/01 02:25:55;;;;;;;14.85;9.90;;;;;;;;;;5072738;28;20407;-80
2023/04/01 02:28:22;;;;;;;14.97;10.10;;;;;;;;;;5087270;28;20436;-80
2023/04/01 02:30:50;;;;;;;15.10;9.82;;;;;;;;;;5073121;28;20396;-79
2023/04/01 02:33:17;;;;;;;13.85;9.52;;;;;;;;;;5070407;28;20417;-79
2023/04/01 02:35:43;;;;;;;15.37;9.73;;;;;;;;;;5075852;28;20424;-77
2023/04/01 02:38:09;;;;;;;14.32;9.75;;;;;;;;;;5074273;28;20508;-80
2023/04/01 02:40:46;;;;;;;17.53;10.10;;;;;;;;;;5076140;28;20469;-81
2023/04/01 02:43:12;;;;;;;15.15;10.13;;;;;;;;;;5056483;28;20527;-80
2023/04/01 02:45:38;;;;;;;17.73;10.57;;;;;;;;;;5075765;28;20940;-80
2023/04/01 02:48:05;;;;;;;18.15;10.30;;;;;;;;;;5074411;28;20507;-80
2023/04/01 02:50:31;;;;;;;12.95;8.57;;;;;;;;;;5088033;28;20443;-80
2023/04/01 02:52:57;;;;;;;12.82;8.18;;;;;;;;;;5078175;28;20454;-80
2023/04/01 02:55:23;;;;;;;11.68;7.55;;;;;;;;;;5058652;28;20394;-80
2023/04/01 02:57:49;;;;;;;16.10;8.73;;;;;;;;;;5069869;28;20415;-79
2023/04/01 03:00:15;;;;;;;16.98;9.73;;;;;;;;;;5087906;28;20980;-79
2023/04/01 03:02:42;;;;;;;17.35;10.10;;;;;;;;;;5085059;28;21065;-79
2023/04/01 03:05:08;;;;;;;18.92;10.45;;;;;;;;;;5088563;28;20455;-80
2023/04/01 03:07:34;;;;;;;19.98;11.20;;;;;;;;;;5088597;28;20423;-80
2023/04/01 03:10:00;;;;;;;21.80;10.83;;;;;;;;;;5072619;28;20401;-79
2023/04/01 03:12:26;;;;;;;20.17;10.93;;;;;;;;;;5050381;28;20500;-79
2023/04/01 03:14:52;;;;;;;20.88;11.02;;;;;;;;;;5054755;28;20421;-80
2023/04/01 03:17:18;;;;;;;22.02;11.32;;;;;;;;;;5054178;28;20433;-79
2023/04/01 03:19:44;;;;;;;21.83;10.85;;;;;;;;;;5092392;28;20402;-81
2023/04/01 03:22:11;;;;;;;22.55;11.30;;;;;;;;;;5075697;28;20420;-79
2023/04/01 03:24:37;;;;;;;21.33;11.15;;;;;;;;;;5085045;28;20426;-80
2023/04/01 03:27:03;;;;;;;25.13;11.85;;;;;;;;;;5062861;28;20407;-78
2023/04/01 03:29:29;;;;;;;27.67;11.80;;;;;;;;;;5071904;28;20516;-80
2023/04/01 03:31:57;;;;;;;25.20;11.95;;;;;;;;;;5078672;28;20417;-79
2023/04/01 03:34:24;;;;;;;23.23;11.13;;;;;;;;;;5107166;28;20430;-79
2023/04/01 03:36:51;;;;;;;22.35;11.00;;;;;;;;;;5074092;28;20422;-80
2023/04/01 03:39:18;;;;;;;19.97;10.20;;;;;;;;;;5060261;28;20543;-80
2023/04/01 03:41:45;;;;;;;20.40;10.95;;;;;;;;;;5107376;28;20418;-80
2023/04/01 03:44:11;;;;;;;21.83;10.80;;;;;;;;;;5054473;28;20426;-79
2023/04/01 03:46:37;;;;;;;23.77;11.60;;;;;;;;;;5055665;28;20467;-79
2023/04/01 03:49:03;;;;;;;24.63;12.27;;;;;;;;;;5073181;28;20448;-81
2023/04/01 03:51:29;;;;;;;25.40;13.35;;;;;;;;;;5085365;28;20411;-79
2023/04/01 03:53:56;;;;;;;26.75;13.40;;;;;;;;;;5072518;28;20440;-80
2023/04/01 03:56:22;;;;;;;26.52;12.98;;;;;;;;;;5089468;28;20413;-81
2023/04/01 03:58:48;;;;;;;25.95;13.40;;;;;;;;;;5070905;28;20454;-79
2023/04/01 04:01:18;;;;;;;29.13;14.05;;;;;;;;;;5048506;28;20848;-80
2023/04/01 04:03:45;;;;;;;25.88;13.80;;;;;;;;;;5042512;28;20427;-80
2023/04/01 04:06:12;;;;;;;28.23;14.43;;;;;;;;;;5045249;28;20413;-81
2023/04/01 04:08:38;;;;;;;27.95;14.05;;;;;;;;;;5086563;28;20754;-81
2023/04/01 04:11:04;;;;;;;27.70;14.30;;;;;;;;;;5090204;28;20766;-80
2023/04/01 04:13:31;;;;;;;28.83;14.88;;;;;;;;;;5036926;28;20427;-80
2023/04/01 04:15:57;;;;;;;29.23;15.43;;;;;;;;;;5038184;28;20902;-80
2023/04/01 04:18:23;;;;;;;29.90;15.55;;;;;;;;;;5087769;28;20501;-79
2023/04/01 04:20:50;;;;;;;29.55;15.57;;;;;;;;;;5056884;28;20436;-81
2023/04/01 04:23:17;;;;;;;27.67;15.30;;;;;;;;;;5055792;28;20422;-81
2023/04/01 04:25:53;;;;;;;26.43;15.03;;;;;;;;;;5055997;28;20463;-80
2023/04/01 04:28:19;;;;;;;28.80;15.73;;;;;;;;;;5084178;28;20415;-81
2023/04/01 04:30:45;;;;;;;30.10;15.52;;;;;;;;;;5073671;28;20413;-81
2023/04/01 04:33:12;;;;;;;26.98;15.13;;;;;;;;;;5094785;28;20415;-80
2023/04/01 04:35:38;;;;;;;28.85;15.43;;;;;;;;;;5087914;28;20413;-81
2023/04/01 04:38:04;;;;;;;33.25;15.27;;;;;;;;;;5045721;28;20415;-81
2023/04/01 04:40:30;;;;;;;26.13;14.32;;;;;;;;;;5105591;28;20479;-81
2023/04/01 04:42:56;;;;;;;27.00;14.82;;;;;;;;;;5065495;28;20422;-81
2023/04/01 04:45:22;;;;;;;27.00;15.05;;;;;;;;;;5091191;28;20429;-82
2023/04/01 04:47:48;;;;;;;28.98;14.88;;;;;;;;;;5054293;28;20411;-82
2023/04/01 04:50:14;;;;;;;31.27;15.30;;;;;;;;;;5056338;28;20418;-81
2023/04/01 04:52:40;;;;;;;28.77;15.32;;;;;;;;;;5074910;28;20467;-83
2023/04/01 04:55:06;;;;;;;30.05;15.65;;;;;;;;;;5042431;28;20413;-82
2023/04/01 04:57:32;;;;;;;34.80;16.23;;;;;;;;;;5041984;28;20416;-82
2023/04/01 04:59:59;;;;;;;32.90;15.70;;;;;;;;;;5068117;28;20421;-82
2023/04/01 05:02:25;;;;;;;32.87;15.77;;;;;;;;;;5061516;28;20903;-82
2023/04/01 05:04:51;;;;;;;32.63;15.40;;;;;;;;;;5043441;28;20430;-82
2023/04/01 05:07:17;;;;;;;32.47;15.90;;;;;;;;;;5063361;28;20449;-86
2023/04/01 05:09:45;;;;;;;30.20;15.20;;;;;;;;;;5041177;28;20488;-86
2023/04/01 05:12:12;;;;;;;29.15;14.75;;;;;;;;;;5071999;28;20427;-82
2023/04/01 05:14:39;;;;;;;31.00;14.80;;;;;;;;;;5058525;28;20922;-86
2023/04/01 05:17:08;;;;;;;34.58;15.20;;;;;;;;;;5042231;28;20788;-84
2023/04/01 05:19:34;;;;;;;28.13;14.35;;;;;;;;;;5052055;28;20443;-84
2023/04/01 05:22:01;;;;;;;30.75;14.90;;;;;;;;;;5075623;28;20415;-82
2023/04/01 05:24:27;;;;;;;30.02;14.68;;;;;;;;;;5040635;28;20432;-81
2023/04/01 05:26:53;;;;;;;29.20;14.80;;;;;;;;;;5055924;28;20473;-83
2023/04/01 05:29:19;;;;;;;29.98;15.10;;;;;;;;;;5047120;28;20425;-83
2023/04/01 05:31:47;;;;;;;32.92;15.80;;;;;;;;;;5056919;28;20443;-82
2023/04/01 05:34:14;;;;;;;37.88;15.82;;;;;;;;;;5072397;28;20428;-82
2023/04/01 05:36:41;;;;;;;34.67;15.55;;;;;;;;;;5073007;28;20507;-83
2023/04/01 05:39:08;;;;;;;30.45;14.52;;;;;;;;;;5038934;28;20510;-83
2023/04/01 05:41:37;;;;;;;30.45;15.02;;;;;;;;;;5046013;28;20447;-81
2023/04/01 05:44:04;;;;;;;35.10;15.05;;;;;;;;;;5073892;28;20425;-83
2023/04/01 05:46:30;;;;;;;30.85;14.57;;;;;;;;;;5059181;28;20407;-84
2023/04/01 05:48:56;;;;;;;31.63;14.27;;;;;;;;;;5041644;28;20422;-90
2023/04/01 05:51:22;;;;;;;27.08;13.50;;;;;;;;;;5049951;28;20495;-89
2023/04/01 05:53:48;;;;;;;27.15;12.65;;;;;;;;;;5044926;28;20784;-88
2023/04/01 05:56:14;;;;;;;27.23;13.10;;;;;;;;;;5059303;28;20430;-89
2023/04/01 05:58:40;;;;;;;29.48;13.60;;;;;;;;;;5036511;28;20448;-88
2023/04/01 06:01:08;;;;;;;21.58;11.68;;;;;;;;;;5059255;28;21437;-86
2023/04/01 06:03:34;;;;;;;23.38;12.05;;;;;;;;;;5060177;28;20498;-87
2023/04/01 06:06:00;;;;;;;23.80;11.57;;;;;;;;;;5076177;28;20400;-87
2023/04/01 06:08:27;;;;;;;33.92;11.88;;;;;;;;;;5043412;28;20419;-87
2023/04/01 06:11:01;;;;;;;22.17;10.73;;;;;;;;;;5033000;28;20476;-85
2023/04/01 06:13:54;;;;;;;21.75;10.68;;;;;;;;;;5055061;28;20427;-84
2023/04/01 06:16:30;;;;;;;14.23;8.07;;;;;;;;;;5099316;28;20421;-80
2023/04/01 06:19:05;;;;;;;13.77;7.32;;;;;;;;;;5056102;28;20413;-84
2023/04/01 06:21:55;;;;;;;11.07;5.85;;;;;;;;;;5066270;28;20755;-84
2023/04/01 06:24:39;;;;;;;20.38;6.15;;;;;;;;;;5055443;28;20465;-84
2023/04/01 06:27:24;;;;;;;34.17;7.10;;;;;;;;;;5069019;28;20450;-84
2023/04/01 06:29:55;;;;;;;11.82;5.43;;;;;;;;;;5057256;28;20419;-84
2023/04/01 06:32:21;;;;;;;9.55;4.43;;;;;;;;;;5052954;28;20919;-87
2023/04/01 06:35:15;;;;;;;9.15;5.13;;;;;;;;;;5056895;28;20910;-86
2023/04/01 06:37:44;;;;;;;10.70;5.53;;;;;;;;;;5072937;28;20419;-85
2023/04/01 06:40:29;;;;;;;12.83;6.40;;;;;;;;;;5076154;28;20403;-85
2023/04/01 06:43:07;;;;;;;12.40;6.60;;;;;;;;;;5058748;28;20415;-85
2023/04/01 06:45:39;;;;;;;15.87;7.50;;;;;;;;;;5075342;28;20474;-86
2023/04/01 06:48:19;;;;;;;14.75;7.82;;;;;;;;;;5057417;28;20443;-85
2023/04/01 06:50:54;;;;;;;14.95;8.35;;;;;;;;;;5059884;28;20429;-86
2023/04/01 06:53:25;;;;;;;15.10;8.38;;;;;;;;;;5058649;28;20421;-86
2023/04/01 06:55:58;;;;;;;15.80;8.95;;;;;;;;;;5071834;28;20510;-87
2023/04/01 06:58:27;;;;;;;17.38;9.60;;;;;;;;;;5056105;28;20547;-87
2023/04/01 07:00:58;;;;;;;17.15;9.77;;;;;;;;;;5063495;28;20397;-91
2023/04/01 07:03:33;;;;;;;16.60;10.17;;;;;;;;;;5039574;28;20526;-88
2023/04/01 07:06:11;;;;;;;18.17;10.45;;;;;;;;;;5066392;28;20510;-88
2023/04/01 07:08:39;;;;;;;19.17;11.13;;;;;;;;;;5061142;28;20579;-88
2023/04/01 07:11:07;;;;;;;19.58;12.00;;;;;;;;;;5072629;28;20499;-88
2023/04/01 07:13:52;;;;;;;17.08;11.43;;;;;;;;;;5088632;28;20415;-88
2023/04/01 07:16:18;;;;;;;16.65;11.38;;;;;;;;;;5069408;28;20428;-88
2023/04/01 07:18:50;;;;;;;19.27;12.25;;;;;;;;;;5071662;28;20482;-88
2023/04/01 07:21:22;;;;;;;18.35;12.38;;;;;;;;;;5088955;28;20494;-89
2023/04/01 07:23:51;;;;;;;19.27;12.50;;;10.60;99.90;;;;;;5067097;28;20927;-88
2023/04/01 07:26:21;;;;;;;19.40;12.57;;;10.70;99.90;;;;;;5108554;28;20491;-89
2023/04/01 07:28:47;;;;;;;20.52;13.30;;;;;;;;;;5091027;28;20729;-89
2023/04/01 07:31:20;;;;;;;21.15;14.48;;;;;;;;;;5055670;28;20404;-89
2023/04/01 07:33:46;;;;;;;24.48;15.57;;;;;;;;;;5051935;28;20460;-90
2023/04/01 07:36:12;;;;;;;23.00;15.85;;;;;;;;;;5054478;28;20411;-88
2023/04/01 07:38:58;;;;;;;24.30;15.53;;;;;;;;;;5058315;28;20421;-89
2023/04/01 07:41:46;;;;;;;24.52;16.00;;;;;;;;;;5072042;28;20406;-83
2023/04/01 07:44:31;;;;;;;26.38;17.23;;;;;;;;;;5072095;28;20416;-88
2023/04/01 07:47:25;;;;;;;26.00;16.45;;;10.60;99.90;;;;;;5051487;28;20419;-89
2023/04/01 07:50:03;;;;;;;28.10;17.63;;;;;;;;;;5055553;28;20473;-90
2023/04/01 07:52:36;;;;;;;27.73;17.85;;;;;;;;;;5070426;28;20408;-90
2023/04/01 07:55:02;;;;;;;28.13;17.55;;;;;;;;;;5068514;28;20429;-90
2023/04/01 07:57:37;;;;;;;29.58;18.33;;;;;;;;;;5049561;28;20425;-92
2023/04/01 08:00:15;;;;;;;27.85;17.50;;;;;;;;;;5051090;28;20442;-90
2023/04/01 08:02:52;;;;;;;27.57;17.03;;;;;;;;;;5071408;28;20423;-89
2023/04/01 08:05:23;;;;;;;27.60;17.25;;;;;;;;;;5071338;28;21593;-91
2023/04/01 08:07:52;;;;;;;28.43;17.17;;;;;;;;;;5048903;28;20434;-88
2023/04/01 08:10:18;;;;;;;28.50;17.67;;;;;;;;;;5060449;28;20423;-89
2023/04/01 08:13:07;;;;;;;27.75;17.77;;;10.00;99.90;;;;;;5063339;28;20421;-89
2023/04/01 08:15:54;;;;;;;26.52;17.10;;;;;;;;;;5054408;28;20429;-86
2023/04/01 08:18:20;;;;;;;30.15;17.80;;;;;;;;;;5050188;28;20426;-87
2023/04/01 08:20:48;;;;;;;29.85;17.60;;;;;;;;;;5064941;28;20439;-89
2023/04/01 08:23:16;;;;;;;27.60;16.00;;;;;;;;;;5073169;28;20416;-90
2023/04/01 08:25:50;;;;;;;29.75;17.73;;;;;;;;;;5070240;28;20754;-89
2023/04/01 08:28:20;;;;;;;28.10;16.77;;;;;;;;;;5066276;28;21147;-90
2023/04/01 08:30:52;;;;;;;28.13;17.23;;;;;;;;;;5059782;28;20417;-90
2023/04/01 08:33:29;;;;;;;29.33;16.67;;;;;;;;;;5066997;28;20744;-90
2023/04/01 08:35:55;;;;;;;29.73;18.17;;;;;;;;;;5047525;28;20423;-90
2023/04/01 08:38:25;;;;;;;28.10;16.92;;;;;;;;;;5070403;28;20491;-90
2023/04/01 08:41:12;;;;;;;29.17;17.98;;;;;;;;;;5059451;28;20517;-91
2023/04/01 08:43:52;;;;;;;30.00;17.87;;;;;;;;;;5084412;28;20460;-89
2023/04/01 08:46:36;;;;;;;28.90;17.45;;;;;;;;;;5055774;28;20414;-90
2023/04/01 08:49:09;;;;;;;27.88;16.20;;;;;;;;;;5070167;28;20412;-89
2023/04/01 08:51:55;;;;;;;27.20;16.27;;;;;;;;;;5103335;28;20413;-89
2023/04/01 08:54:31;;;;;;;24.33;15.13;;;;;;;;;;5039837;28;20433;-88
2023/04/01 08:57:12;;;;;;;26.13;16.05;;;;;;;;;;5064994;28;20413;-88
2023/04/01 09:00:08;;;;;;;23.15;14.73;;;;;;;;;;5064364;28;20457;-88
2023/04/01 09:03:08;;;;;;;23.25;14.43;;;10.30;99.90;;;;;;5035330;28;20518;-88
2023/04/01 09:05:43;;;;;;;22.50;15.02;;;;;;;;;;5059449;28;20423;-88
2023/04/01 09:08:18;;;;;;;23.15;14.98;;;;;;;;;;5068246;28;20480;-87
2023/04/01 09:11:03;;;;;;;20.52;13.68;;;;;;;;;;5079630;28;20412;-87
2023/04/01 09:13:41;;;;;;;20.45;13.43;;;;;;;;;;5063746;28;20455;-88
2023/04/01 09:16:24;;;;;;;18.35;12.25;;;;;;;;;;5067623;28;20415;-88
2023/04/01 09:19:09;;;;;;;18.30;12.43;;;;;;;;;;5070388;28;20950;-87
2023/04/01 09:21:35;;;;;;;18.65;12.23;;;;;;;;;;5072739;28;20941;-88
2023/04/01 09:24:04;;;;;;;18.80;12.75;;;;;;;;;;5064280;28;20482;-89
2023/04/01 09:26:35;;;;;;;21.10;13.40;;;;;;;;;;5051535;28;20511;-90
2023/04/01 09:29:14;;;;;;;28.90;17.42;;;;;;;;;;5053315;28;20447;-90
2023/04/01 09:32:03;;;;;;;22.33;14.45;;;;;;;;;;5069756;28;20415;-89
2023/04/01 09:34:33;;;;;;;22.38;14.32;;;;;;;;;;5065593;28;20423;-88
2023/04/01 09:37:02;;;;;;;22.05;13.73;;;;;;;;;;5052866;28;20430;-89
2023/04/01 09:39:36;;;;;;;18.63;12.57;;;;;;;;;;5044878;28;20505;-90
2023/04/01 09:42:21;;;;;;;17.98;13.13;;;;;;;;;;5067509;28;20443;-84
2023/04/01 09:44:47;;;;;;;16.35;11.95;;;;;;;;;;5072289;28;21002;-91
2023/04/01 09:47:32;;;;;;;14.68;10.50;;;;;;;;;;5075779;28;20899;-87
2023/04/01 09:50:17;;;;;;;14.20;10.75;;;;;;;;;;5064676;28;20423;-87
2023/04/01 09:52:49;;;;;;;11.98;8.43;;;;;;;;;;5069262;28;20427;-87
2023/04/01 09:55:21;;;;;;;11.10;7.90;;;;;;;;;;5059075;28;20400;-88
2023/04/01 09:57:50;;;;;;;10.73;7.97;;;;;;;;;;5075270;28;20492;-87
2023/04/01 10:00:20;;;;;;;11.60;7.55;;;;;;;;;;5044872;28;20420;-87
2023/04/01 10:03:05;;;;;;;10.40;7.53;;;;;;;;;;5046493;28;20417;-90
2023/04/01 10:05:40;;;;;;;9.80;6.60;;;;;;;;;;5058061;28;20970;-88
2023/04/01 10:08:12;;;;;;;9.75;6.95;;;;;;;;;;5071203;28;20434;-88
2023/04/01 10:10:41;;;;;;;10.75;7.15;;;;;;;;;;5103534;28;20485;-87
2023/04/01 10:13:26;;;;;;;10.57;7.22;;;;;;;;;;5049198;28;20943;-89
2023/04/01 10:16:04;;;;;;;9.15;6.60;;;;;;;;;;5054145;28;20407;-87
2023/04/01 10:18:34;;;;;;;8.98;6.10;;;;;;;;;;5050211;28;20450;-85
2023/04/01 10:21:03;;;;;;;9.82;6.47;;;;;;;;;;5068300;28;20431;-89
2023/04/01 10:23:38;;;;;;;9.18;6.10;;;;;;;;;;5051486;28;20495;-87
2023/04/01 10:26:27;;;;;;;8.77;5.80;;;;;;;;;;5057103;28;20419;-88
2023/04/01 10:29:12;;;;;;;9.77;6.18;;;;;;;;;;5047221;28;20414;-87
2023/04/01 10:31:57;;;;;;;7.97;5.55;;;;;;;;;;5058118;28;20415;-87
2023/04/01 10:34:29;;;;;;;9.98;6.43;;;;;;;;;;5052715;28;20913;-87
2023/04/01 10:37:00;;;;;;;9.40;7.00;;;;;;;;;;5059496;28;20426;-89
2023/04/01 10:39:35;;;;;;;10.00;6.95;;;;;;;;;;5059610;28;20446;-87
2023/04/01 10:42:13;;;;;;;12.18;7.35;;;;;;;;;;5071261;28;20470;-87
2023/04/01 10:44:51;;;;;;;8.73;6.70;;;;;;;;;;5073835;28;20428;-88
2023/04/01 10:47:17;;;;;;;8.00;5.75;;;;;;;;;;5073597;28;20505;-86
2023/04/01 10:50:02;;;;;;;7.60;5.25;;;;;;;;;;5080491;28;20761;-88
2023/04/01 10:52:49;;;;;;;7.72;5.57;;;;;;;;;;5062559;28;20400;-89
2023/04/01 10:55:42;;;;;;;6.85;4.90;;;10.40;99.90;;;;;;5041081;28;20422;-88
2023/04/01 10:58:45;;;;;;;8.00;5.50;;;10.10;99.90;;;;;;5074215;28;20473;-88
2023/04/01 11:01:30;;;;;;;7.82;4.55;;;;;;;;;;5057384;28;20415;-88
2023/04/01 11:03:56;;;;;;;7.30;4.72;;;;;;;;;;5050839;28;20469;-89
2023/04/01 11:06:28;;;;;;;6.25;4.72;;;;;;;;;;5050659;28;20422;-90
2023/04/01 11:09:00;;;;;;;7.63;5.03;;;;;;;;;;5055965;28;20525;-88
2023/04/01 11:11:35;;;;;;;6.28;5.20;;;;;;;;;;5051277;28;20526;-88
2023/04/01 11:14:11;;;;;;;5.63;4.65;;;;;;;;;;5057845;28;20453;-88
2023/04/01 11:17:02;;;;;;;5.72;4.50;;;;;;;;;;5065594;28;20418;-90
2023/04/01 11:19:36;;;;;;;5.43;4.13;;;;;;;;;;5048150;28;20419;-90
2023/04/01 11:22:36;;;;;;;5.00;4.10;;;10.40;99.90;;;;;;5068358;28;20435;-88
2023/04/01 11:25:05;;;;;;;5.68;3.95;;;;;;;;;;5080678;28;20425;-89
2023/04/01 11:27:37;;;;;;;4.97;3.55;;;;;;;;;;5067421;28;20422;-89
2023/04/01 11:30:23;;;;;;;6.97;4.33;;;;;;;;;;5066778;28;20906;-89
2023/04/01 11:32:49;;;;;;;4.53;3.50;;;;;;;;;;5077091;28;20426;-90
2023/04/01 11:35:34;;;;;;;5.70;3.60;;;;;;;;;;5052552;28;20756;-90
2023/04/01 11:38:06;;;;;;;5.05;3.80;;;;;;;;;;5047033;28;20420;-88
2023/04/01 11:40:36;;;;;;;4.83;3.30;;;;;;;;;;5051011;28;20505;-88
2023/04/01 11:43:02;;;;;;;4.55;3.63;;;;;;;;;;5044066;28;20484;-89
2023/04/01 11:45:32;;;;;;;5.13;4.00;;;;;;;;;;5044214;28;20943;-89
2023/04/01 11:47:59;;;;;;;5.10;4.10;;;;;;;;;;5057546;28;20492;-90
2023/04/01 11:50:28;;;;;;;6.82;4.60;;;;;;;;;;5048824;28;20424;-90
2023/04/01 11:53:18;;;;;;;6.32;4.15;;;;;;;;;;5068513;28;20933;-92
2023/04/01 11:55:47;;;;;;;5.72;4.53;;;;;;;;;;5088756;28;20899;-89
2023/04/01 11:58:24;;;;;;;6.57;4.80;;;;;;;;;;5052821;28;20469;-88
2023/04/01 12:01:08;;;;;;;6.95;5.03;;;;;;;;;;5053897;28;20580;-90
2023/04/01 12:03:52;;;;;;;6.15;4.60;;;;;;;;;;5051325;28;20428;-91
2023/04/01 12:06:30;;;;;;;6.25;4.65;;;;;;;;;;5042548;28;20419;-89
2023/04/01 12:09:06;;;;;;;6.35;4.55;;;;;;;;;;5046231;28;20978;-90
2023/04/01 12:11:39;;;;;;;6.00;4.70;;;;;;;;;;5054549;28;20440;-89
2023/04/01 12:14:24;;;;;;;5.90;4.70;;;;;;;;;;5069374;28;20752;-90
2023/04/01 12:16:53;;;;;;;6.05;4.60;;;;;;;;;;5079859;28;20407;-89
2023/04/01 12:19:38;;;;;;;7.38;4.72;;;;;;;;;;5067220;28;20991;-90
2023/04/01 12:22:13;;;;;;;6.18;4.80;;;;;;;;;;5065753;28;20407;-90
2023/04/01 12:24:54;;;;;;;5.00;4.20;;;;;;;;;;5038037;28;20513;-92
2023/04/01 12:27:27;;;;;;;5.65;4.53;;;;;;;;;;5053871;28;20434;-92
2023/04/01 12:30:12;;;;;;;6.53;4.45;;;;;;;;;;5071049;28;20415;-89
2023/04/01 12:32:45;;;;;;;7.18;4.55;;;;;;;;;;5065881;28;20429;-90
2023/04/01 12:35:18;;;;;;;5.53;4.28;;;;;;;;;;5085389;28;20434;-91
2023/04/01 12:38:02;;;;;;;5.93;4.23;;;;;;;;;;5050078;28;20469;-89
2023/04/01 12:40:31;;;;;;;5.80;5.00;;;;;;;;;;5048975;28;20423;-89
2023/04/01 12:43:20;;;;;;;5.30;4.50;;;;;;;;;;5087363;28;20451;-91
2023/04/01 12:46:12;;;;;;;5.40;4.80;;;10.70;99.90;;;;;;5047161;28;20489;-89
2023/04/01 12:48:48;;;;;;;7.03;4.90;;;;;;;;;;5071295;28;20451;-89
2023/04/01 12:51:40;;;;;;;5.43;4.10;;;;;;;;;;5051103;28;20788;-90
2023/04/01 12:54:20;;;;;;;18.25;5.05;;;;;;;;;;5018989;28;20533;-90
2023/04/01 12:57:14;;;;;;;4.47;3.90;;;10.40;99.90;;;;;;5055128;28;20415;-90
2023/04/01 12:59:46;;;;;;;5.32;3.88;;;;;;;;;;5046590;28;20434;-89
2023/04/01 13:02:13;;;;;;;4.30;3.50;;;;;;;;;;5067077;28;20428;-90
2023/04/01 13:04:49;;;;;;;4.88;3.75;;;;;;;;;;5061998;28;20464;-88
2023/04/01 13:07:23;;;;;;;5.65;4.28;;;;;;;;;;5065144;28;21095;-89
2023/04/01 13:10:04;;;;;;;4.80;4.10;;;;;;;;;;5069357;28;20423;-91
2023/04/01 13:12:49;;;;;;;5.07;4.50;;;;;;;;;;5071275;28;20843;-89
2023/04/01 13:15:31;;;;;;;10.95;4.90;;;;;;;;;;5051457;28;20416;-88
2023/04/01 13:18:12;;;;;;;5.82;4.45;;;;;;;;;;5057663;28;20427;-89
2023/04/01 13:20:48;;;;;;;6.07;4.80;;;;;;;;;;5054318;28;20419;-87
2023/04/01 13:23:18;;;;;;;5.18;4.25;;;;;;;;;;5071613;28;21750;-87
2023/04/01 13:26:05;;;;;;;5.60;4.28;;;;;;;;;;5074422;28;20426;-91
2023/04/01 13:28:34;;;;;;;5.20;3.40;;;;;;;;;;5076356;28;20490;-87
2023/04/01 13:31:21;;;;;;;4.18;3.67;;;;;;;;;;5073355;28;20861;-90
2023/04/01 13:33:50;;;;;;;4.30;3.50;;;;;;;;;;5044840;28;20996;-89
2023/04/01 13:36:27;;;;;;;5.38;3.47;;;;;;;;;;5067674;28;20934;-88
2023/04/01 13:39:12;;;;;;;5.50;3.50;;;;;;;;;;5060986;28;20419;-89
2023/04/01 13:41:51;;;;;;;3.80;2.90;;;;;;;;;;5057391;28;20443;-89
2023/04/01 13:44:17;;;;;;;4.50;3.45;;;;;;;;;;5058277;28;20452;-89
2023/04/01 13:46:49;;;;;;;5.83;4.70;;;;;;;;;;5069818;28;20507;-89
2023/04/01 13:49:34;;;;;;;5.07;4.47;;;;;;;;;;5076548;28;20415;-89
2023/04/01 13:52:24;;;;;;;5.55;4.10;;;;;;;;;;5059375;28;20415;-80
2023/04/01 13:54:53;;;;;;;4.80;4.30;;;;;;;;;;5062691;28;20413;-80
2023/04/01 13:57:24;;;;;;;4.70;4.00;;;;;;;;;;5066873;28;20434;-79
2023/04/01 13:59:56;;;;;;;4.10;3.70;;;;;;;;;;5052276;28;20433;-79
2023/04/01 14:02:41;;;;;;;4.20;3.42;;;;;;;;;;5063694;28;20442;-79
2023/04/01 14:05:33;;;;;;;4.43;3.47;;;;;;;;;;5048896;28;20431;-79
2023/04/01 14:08:18;;;;;;;6.00;3.25;;;;;;;;;;5062745;28;20541;-79
2023/04/01 14:10:50;;;;;;;4.30;3.20;;;;;;;;;;5071250;28;20418;-79
2023/04/01 14:13:32;;;;;;;4.22;3.00;;;;;;;;;;5093730;28;20421;-79
2023/04/01 14:16:31;;;;;;;4.30;3.23;;;9.70;99.90;;;;;;5084396;28;20475;-78
2023/04/01 14:19:11;;;;;;;4.30;3.13;;;;;;;;;;5071736;28;20426;-79
2023/04/01 14:21:42;;;;;;;4.07;2.80;;;;;;;;;;5086995;28;20432;-79
2023/04/01 14:24:45;;;;;;;3.45;2.85;;;9.50;99.90;;;;;;5088447;28;20418;-79
2023/04/01 14:27:11;;;;;;;3.90;3.00;;;;;;;;;;5083298;28;20509;-79
2023/04/01 14:29:47;;;;;;;4.67;3.43;;;;;;;;;;5090897;28;21093;-79
2023/04/01 14:32:13;;;;;;;3.30;2.72;;;;;;;;;;5073090;28;20417;-81
2023/04/01 14:35:07;;;;;;;3.65;2.40;;;9.40;99.90;;;;;;5058527;28;20902;-80
2023/04/01 14:37:36;;;;;;;4.87;3.60;;;;;;;;;;5087661;28;20461;-82
2023/04/01 14:40:24;;;;;;;5.90;3.60;;;9.50;99.90;;;;;;5075727;28;20417;-80
2023/04/01 14:42:58;;;;;;;4.05;3.28;;;;;;;;;;5056470;28;20429;-80
2023/04/01 14:45:31;;;;;;;3.88;2.92;;;;;;;;;;5095198;28;20990;-86
2023/04/01 14:48:06;;;;;;;4.55;3.00;;;;;;;;;;5072832;28;20914;-87
2023/04/01 14:50:41;;;;;;;5.05;3.88;;;;;;;;;;5089797;28;20406;-89
2023/04/01 14:53:07;;;;;;;4.33;2.60;;;;;;;;;;5061542;28;20523;-89
2023/04/01 14:55:37;;;;;;;3.75;3.05;;;;;;;;;;5063698;28;20421;-88
2023/04/01 14:58:11;;;;;;;5.95;4.72;;;;;;;;;;5061342;28;20898;-88